sensor_id;sensor_type;location;lat;lon;timestamp;temperature;humidity
18339;DHT22;9295;44.484;11.240;2023-04-08T00:00:31;9.90;99.90
18339;DHT22;9295;44.484;11.240;2023-04-08T00:03:00;9.90;99.90
18339;DHT22;9295;44.484;11.240;2023-04-08T00:05:28;9.90;99.90
18339;DHT22;9295;44.484;11.240;2023-04-08T00:07:57;9.90;99.90
18339;DHT22;9295;44.484;11.240;2023-04-08T00:10:25;9.90;99.90
18339;DHT22;9295;44.484;11.240;2023-04-08T00:12:53;9.90;99.90
18339;DHT22;9295;44.484;11.240;2023-04-08T00:15:22;9.90;99.90
18339;DHT22;9295;44.484;11.240;2023-04-08T00:17:52;9.90;99.90
18339;DHT22;9295;44.484;11.240;2023-04-08T00:20:22;9.90;99.90
18339;DHT22;9295;44.484;11.240;2023-04-08T00:22:50;9.90;99.90
18339;DHT22;9295;44.484;11.240;2023-04-08T00:25:19;9.80;99.90
18339;DHT22;9295;44.484;11.240;2023-04-08T00:27:51;9.80;99.90
18339;DHT22;9295;44.484;11.240;2023-04-08T00:30:19;9.80;99.90
18339;DHT22;9295;44.484;11.240;2023-04-08T00:32:48;9.80;99.90
18339;DHT22;9295;44.484;11.240;2023-04-08T00:35:18;9.80;99.90
18339;DHT22;9295;44.484;11.240;2023-04-08T00:37:46;9.80;99.90
18339;DHT22;9295;44.484;11.240;2023-04-08T00:40:15;9.80;99.90
18339;DHT22;9295;44.484;11.240;2023-04-08T00:42:44;9.80;99.90
18339;DHT22;9295;44.484;11.240;2023-04-08T00:45:12;9.80;99.90
18339;DHT22;9295;44.484;11.240;2023-04-08T00:47:40;9.70;99.90
18339;DHT22;9295;44.484;11.240;2023-04-08T00:50:10;9.70;99.90
18339;DHT22;9295;44.484;11.240;2023-04-08T00:52:40;9.80;99.90
18339;DHT22;9295;44.484;11.240;2023-04-08T00:55:08;9.80;99.90
18339;DHT22;9295;44.484;11.240;2023-04-08T00:57:37;9.80;99.90
18339;DHT22;9295;44.484;11.240;2023-04-08T01:00:06;9.80;99.90
18339;DHT22;9295;44.484;11.240;2023-04-08T01:02:40;9.70;99.90
18339;DHT22;9295;44.484;11.240;2023-04-08T01:05:14;9.80;99.90
18339;DHT22;9295;44.484;11.240;2023-04-08T01:07:47;9.80;99.90
18339;DHT22;9295;44.484;11.240;2023-04-08T01:10:18;9.80;99.90
18339;DHT22;9295;44.484;11.240;2023-04-08T01:12:51;9.80;99.90
18339;DHT22;9295;44.484;11.240;2023-04-08T01:15:21;9.80;99.90
18339;DHT22;9295;44.484;11.240;2023-04-08T01:17:53;9.80;99.90
18339;DHT22;9295;44.484;11.240;2023-04-08T01:20:23;9.80;99.90
18339;DHT22;9295;44.484;11.240;2023-04-08T01:23:08;9.80;99.90
18339;DHT22;9295;44.484;11.240;2023-04-08T01:25:38;9.70;99.90
18339;DHT22;9295;44.484;11.240;2023-04-08T01:28:11;9.70;99.90
18339;DHT22;9295;44.484;11.240;2023-04-08T01:30:41;9.60;99.90
18339;DHT22;9295;44.484;11.240;2023-04-08T01:33:12;9.60;99.90
18339;DHT22;9295;44.484;11.240;2023-04-08T01:35:41;9.60;99.90
18339;DHT22;9295;44.484;11.240;2023-04-08T01:38:14;9.60;99.90
18339;DHT22;9295;44.484;11.240;2023-04-08T01:40:44;9.60;99.90
18339;DHT22;9295;44.484;11.240;2023-04-08T01:43:16;9.60;99.90
18339;DHT22;9295;44.484;11.240;2023-04-08T01:45:46;9.60;99.90
18339;DHT22;9295;44.484;11.240;2023-04-08T01:48:15;9.50;99.90
18339;DHT22;9295;44.484;11.240;2023-04-08T01:50:44;9.50;99.90
18339;DHT22;9295;44.484;11.240;2023-04-08T01:53:13;9.40;99.90
18339;DHT22;9295;44.484;11.240;2023-04-08T01:55:42;9.40;99.90
18339;DHT22;9295;44.484;11.240;2023-04-08T01:58:18;9.40;99.90
18339;DHT22;9295;44.484;11.240;2023-04-08T02:00:47;9.40;99.90
18339;DHT22;9295;44.484;11.240;2023-04-08T02:03:17;9.40;99.90
18339;DHT22;9295;44.484;11.240;2023-04-08T02:05:48;9.30;99.90
18339;DHT22;9295;44.484;11.240;2023-04-08T02:08:16;9.20;99.90
18339;DHT22;9295;44.484;11.240;2023-04-08T02:10:44;9.20;99.90
18339;DHT22;9295;44.484;11.240;2023-04-08T02:13:13;9.10;99.90
18339;DHT22;9295;44.484;11.240;2023-04-08T02:15:46;9.10;99.90
18339;DHT22;9295;44.484;11.240;2023-04-08T02:18:24;9.10;99.90
18339;DHT22;9295;44.484;11.240;2023-04-08T02:21:13;9.00;99.90
18339;DHT22;9295;44.484;11.240;2023-04-08T02:23:45;9.00;99.90
18339;DHT22;9295;44.484;11.240;2023-04-08T02:26:16;8.90;99.90
18339;DHT22;9295;44.484;11.240;2023-04-08T02:28:47;8.90;99.90
18339;DHT22;9295;44.484;11.240;2023-04-08T02:31:18;8.90;99.90
18339;DHT22;9295;44.484;11.240;2023-04-08T02:33:48;8.80;99.90
18339;DHT22;9295;44.484;11.240;2023-04-08T02:36:18;8.80;99.90
18339;DHT22;9295;44.484;11.240;2023-04-08T02:38:47;8.70;99.90
18339;DHT22;9295;44.484;11.240;2023-04-08T02:41:16;8.70;99.90
18339;DHT22;9295;44.484;11.240;2023-04-08T02:43:44;8.60;99.90
18339;DHT22;9295;44.484;11.240;2023-04-08T02:46:14;8.60;99.90
18339;DHT22;9295;44.484;11.240;2023-04-08T02:48:43;8.50;99.90
18339;DHT22;9295;44.484;11.240;2023-04-08T02:51:12;8.40;99.90
18339;DHT22;9295;44.484;11.240;2023-04-08T02:53:40;8.40;99.90
18339;DHT22;9295;44.484;11.240;2023-04-08T02:56:09;8.30;99.90
18339;DHT22;9295;44.484;11.240;2023-04-08T02:58:37;8.30;99.90
18339;DHT22;9295;44.484;11.240;2023-04-08T03:01:07;8.30;99.90
18339;DHT22;9295;44.484;11.240;2023-04-08T03:03:35;8.30;99.90
18339;DHT22;9295;44.484;11.240;2023-04-08T03:06:05;8.30;99.90
18339;DHT22;9295;44.484;11.240;2023-04-08T03:08:33;8.30;99.90
18339;DHT22;9295;44.484;11.240;2023-04-08T03:11:02;8.20;99.90
18339;DHT22;9295;44.484;11.240;2023-04-08T03:13:30;8.20;99.90
18339;DHT22;9295;44.484;11.240;2023-04-08T03:15:58;8.20;99.90
18339;DHT22;9295;44.484;11.240;2023-04-08T03:18:27;8.20;99.90
18339;DHT22;9295;44.484;11.240;2023-04-08T03:20:55;8.20;99.90
18339;DHT22;9295;44.484;11.240;2023-04-08T03:23:25;8.20;99.90
18339;DHT22;9295;44.484;11.240;2023-04-08T03:25:53;8.10;99.90
18339;DHT22;9295;44.484;11.240;2023-04-08T03:28:22;8.10;99.90
18339;DHT22;9295;44.484;11.240;2023-04-08T03:30:50;8.00;99.90
18339;DHT22;9295;44.484;11.240;2023-04-08T03:33:18;8.00;99.90
18339;DHT22;9295;44.484;11.240;2023-04-08T03:35:47;8.00;99.90
18339;DHT22;9295;44.484;11.240;2023-04-08T03:38:15;8.00;99.90
18339;DHT22;9295;44.484;11.240;2023-04-08T03:40:45;8.00;99.90
18339;DHT22;9295;44.484;11.240;2023-04-08T03:43:13;8.00;99.90
18339;DHT22;9295;44.484;11.240;2023-04-08T03:45:42;7.90;99.90
18339;DHT22;9295;44.484;11.240;2023-04-08T03:48:10;7.90;99.90
18339;DHT22;9295;44.484;11.240;2023-04-08T03:50:38;7.90;99.90
18339;DHT22;9295;44.484;11.240;2023-04-08T03:53:07;7.90;99.90
18339;DHT22;9295;44.484;11.240;2023-04-08T03:55:37;7.90;99.90
18339;DHT22;9295;44.484;11.240;2023-04-08T03:58:07;7.90;99.90
18339;DHT22;9295;44.484;11.240;2023-04-08T04:00:35;7.90;99.90
18339;DHT22;9295;44.484;11.240;2023-04-08T04:03:04;8.00;99.90
18339;DHT22;9295;44.484;11.240;2023-04-08T04:05:32;8.10;99.90
18339;DHT22;9295;44.484;11.240;2023-04-08T04:08:00;8.10;99.90
18339;DHT22;9295;44.484;11.240;2023-04-08T04:10:29;8.20;99.90
18339;DHT22;9295;44.484;11.240;2023-04-08T04:12:57;8.20;99.90
18339;DHT22;9295;44.484;11.240;2023-04-08T04:15:27;8.30;99.90
18339;DHT22;9295;44.484;11.240;2023-04-08T04:17:55;8.30;99.90
18339;DHT22;9295;44.484;11.240;2023-04-08T04:20:24;8.30;99.90
18339;DHT22;9295;44.484;11.240;2023-04-08T04:22:55;8.30;99.90
18339;DHT22;9295;44.484;11.240;2023-04-08T04:25:23;8.30;99.90
18339;DHT22;9295;44.484;11.240;2023-04-08T04:27:52;8.30;99.90
18339;DHT22;9295;44.484;11.240;2023-04-08T04:30:20;8.30;99.90
18339;DHT22;9295;44.484;11.240;2023-04-08T04:32:50;8.30;99.90
18339;DHT22;9295;44.484;11.240;2023-04-08T04:35:18;8.30;99.90
18339;DHT22;9295;44.484;11.240;2023-04-08T04:37:46;8.30;99.90
18339;DHT22;9295;44.484;11.240;2023-04-08T04:40:16;8.30;99.90
18339;DHT22;9295;44.484;11.240;2023-04-08T04:42:44;8.30;99.90
18339;DHT22;9295;44.484;11.240;2023-04-08T04:45:13;8.40;99.90
18339;DHT22;9295;44.484;11.240;2023-04-08T04:47:41;8.40;99.90
18339;DHT22;9295;44.484;11.240;2023-04-08T04:50:11;8.40;99.90
18339;DHT22;9295;44.484;11.240;2023-04-08T04:52:39;8.40;99.90
18339;DHT22;9295;44.484;11.240;2023-04-08T04:55:08;8.40;99.90
18339;DHT22;9295;44.484;11.240;2023-04-08T04:57:37;8.40;99.90
18339;DHT22;9295;44.484;11.240;2023-04-08T05:00:06;8.50;99.90
18339;DHT22;9295;44.484;11.240;2023-04-08T05:02:35;8.50;99.90
18339;DHT22;9295;44.484;11.240;2023-04-08T05:05:04;8.60;99.90
18339;DHT22;9295;44.484;11.240;2023-04-08T05:07:36;8.60;99.90
18339;DHT22;9295;44.484;11.240;2023-04-08T05:10:05;8.70;99.90
18339;DHT22;9295;44.484;11.240;2023-04-08T05:12:33;8.70;99.90
18339;DHT22;9295;44.484;11.240;2023-04-08T05:15:03;8.80;99.90
18339;DHT22;9295;44.484;11.240;2023-04-08T05:17:32;8.80;99.90
18339;DHT22;9295;44.484;11.240;2023-04-08T05:20:01;8.90;99.90
18339;DHT22;9295;44.484;11.240;2023-04-08T05:22:29;8.90;99.90
18339;DHT22;9295;44.484;11.240;2023-04-08T05:24:59;9.00;99.90
18339;DHT22;9295;44.484;11.240;2023-04-08T05:27:27;9.00;99.90
18339;DHT22;9295;44.484;11.240;2023-04-08T05:29:55;9.10;99.90
18339;DHT22;9295;44.484;11.240;2023-04-08T05:32:24;9.20;99.90
18339;DHT22;9295;44.484;11.240;2023-04-08T05:34:52;9.30;99.90
18339;DHT22;9295;44.484;11.240;2023-04-08T05:37:20;9.40;99.90
18339;DHT22;9295;44.484;11.240;2023-04-08T05:39:49;9.50;99.90
18339;DHT22;9295;44.484;11.240;2023-04-08T05:42:18;9.60;99.90
18339;DHT22;9295;44.484;11.240;2023-04-08T05:44:47;9.70;99.90
18339;DHT22;9295;44.484;11.240;2023-04-08T05:47:15;9.90;99.90
18339;DHT22;9295;44.484;11.240;2023-04-08T05:49:43;10.00;99.90
18339;DHT22;9295;44.484;11.240;2023-04-08T05:52:12;10.00;99.90
18339;DHT22;9295;44.484;11.240;2023-04-08T05:54:42;10.10;99.90
18339;DHT22;9295;44.484;11.240;2023-04-08T05:57:10;10.10;99.90
18339;DHT22;9295;44.484;11.240;2023-04-08T05:59:40;10.10;99.90
18339;DHT22;9295;44.484;11.240;2023-04-08T06:02:09;10.10;99.90
18339;DHT22;9295;44.484;11.240;2023-04-08T06:04:37;10.10;99.90
18339;DHT22;9295;44.484;11.240;2023-04-08T06:07:06;10.20;99.90
18339;DHT22;9295;44.484;11.240;2023-04-08T06:09:35;10.20;99.90
18339;DHT22;9295;44.484;11.240;2023-04-08T06:12:04;10.20;99.90
18339;DHT22;9295;44.484;11.240;2023-04-08T06:14:32;10.20;99.90
18339;DHT22;9295;44.484;11.240;2023-04-08T06:17:03;10.30;99.90
18339;DHT22;9295;44.484;11.240;2023-04-08T06:19:32;10.40;99.90
18339;DHT22;9295;44.484;11.240;2023-04-08T06:22:00;10.50;99.90
18339;DHT22;9295;44.484;11.240;2023-04-08T06:24:28;10.50;99.90
18339;DHT22;9295;44.484;11.240;2023-04-08T06:26:57;10.60;99.90
18339;DHT22;9295;44.484;11.240;2023-04-08T06:29:25;10.70;99.90
18339;DHT22;9295;44.484;11.240;2023-04-08T06:31:55;10.70;99.90
18339;DHT22;9295;44.484;11.240;2023-04-08T06:34:25;10.80;99.90
18339;DHT22;9295;44.484;11.240;2023-04-08T06:36:54;10.90;99.90
18339;DHT22;9295;44.484;11.240;2023-04-08T06:39:22;10.90;99.90
18339;DHT22;9295;44.484;11.240;2023-04-08T06:41:51;10.90;99.90
18339;DHT22;9295;44.484;11.240;2023-04-08T06:44:36;11.00;99.90
18339;DHT22;9295;44.484;11.240;2023-04-08T06:47:04;10.90;99.90
18339;DHT22;9295;44.484;11.240;2023-04-08T06:49:34;10.90;99.90
18339;DHT22;9295;44.484;11.240;2023-04-08T06:52:03;10.90;99.90
18339;DHT22;9295;44.484;11.240;2023-04-08T06:54:32;10.90;99.90
18339;DHT22;9295;44.484;11.240;2023-04-08T06:57:01;11.00;99.90
18339;DHT22;9295;44.484;11.240;2023-04-08T06:59:30;11.00;99.90
18339;DHT22;9295;44.484;11.240;2023-04-08T07:01:58;11.10;99.90
18339;DHT22;9295;44.484;11.240;2023-04-08T07:04:27;11.10;99.90
18339;DHT22;9295;44.484;11.240;2023-04-08T07:06:57;11.10;99.90
18339;DHT22;9295;44.484;11.240;2023-04-08T07:09:25;11.20;99.90
18339;DHT22;9295;44.484;11.240;2023-04-08T07:11:53;11.20;99.90
18339;DHT22;9295;44.484;11.240;2023-04-08T07:14:23;11.30;99.90
18339;DHT22;9295;44.484;11.240;2023-04-08T07:16:52;11.30;99.90
18339;DHT22;9295;44.484;11.240;2023-04-08T07:19:20;11.30;99.90
18339;DHT22;9295;44.484;11.240;2023-04-08T07:21:48;11.40;99.90
18339;DHT22;9295;44.484;11.240;2023-04-08T07:24:19;11.40;99.90
18339;DHT22;9295;44.484;11.240;2023-04-08T07:26:48;11.50;99.90
18339;DHT22;9295;44.484;11.240;2023-04-08T07:29:16;11.60;99.90
18339;DHT22;9295;44.484;11.240;2023-04-08T07:31:44;11.60;99.90
18339;DHT22;9295;44.484;11.240;2023-04-08T07:34:13;11.70;99.90
18339;DHT22;9295;44.484;11.240;2023-04-08T07:36:41;11.70;99.90
18339;DHT22;9295;44.484;11.240;2023-04-08T07:39:10;11.80;99.90
18339;DHT22;9295;44.484;11.240;2023-04-08T07:41:40;11.90;99.90
18339;DHT22;9295;44.484;11.240;2023-04-08T07:44:08;12.10;99.90
18339;DHT22;9295;44.484;11.240;2023-04-08T07:46:36;12.30;99.90
18339;DHT22;9295;44.484;11.240;2023-04-08T07:49:05;12.40;99.90
18339;DHT22;9295;44.484;11.240;2023-04-08T07:51:34;12.60;99.90
18339;DHT22;9295;44.484;11.240;2023-04-08T07:54:02;12.70;99.90
18339;DHT22;9295;44.484;11.240;2023-04-08T07:56:30;12.80;99.90
18339;DHT22;9295;44.484;11.240;2023-04-08T07:59:00;12.90;99.90
18339;DHT22;9295;44.484;11.240;2023-04-08T08:01:28;13.10;99.90
18339;DHT22;9295;44.484;11.240;2023-04-08T08:04:01;13.30;99.90
18339;DHT22;9295;44.484;11.240;2023-04-08T08:06:29;13.50;99.90
18339;DHT22;9295;44.484;11.240;2023-04-08T08:08:58;13.70;99.90
18339;DHT22;9295;44.484;11.240;2023-04-08T08:11:27;13.90;99.90
18339;DHT22;9295;44.484;11.240;2023-04-08T08:13:55;14.30;99.90
18339;DHT22;9295;44.484;11.240;2023-04-08T08:16:28;14.30;99.90
18339;DHT22;9295;44.484;11.240;2023-04-08T08:18:57;14.40;99.90
18339;DHT22;9295;44.484;11.240;2023-04-08T08:21:25;14.60;99.90
18339;DHT22;9295;44.484;11.240;2023-04-08T08:23:53;14.80;99.90
18339;DHT22;9295;44.484;11.240;2023-04-08T08:26:22;15.20;99.90
18339;DHT22;9295;44.484;11.240;2023-04-08T08:28:51;15.30;99.90
18339;DHT22;9295;44.484;11.240;2023-04-08T08:31:19;15.50;99.90
18339;DHT22;9295;44.484;11.240;2023-04-08T08:33:49;15.60;99.90
18339;DHT22;9295;44.484;11.240;2023-04-08T08:36:18;15.90;99.90
18339;DHT22;9295;44.484;11.240;2023-04-08T08:38:46;16.20;99.90
18339;DHT22;9295;44.484;11.240;2023-04-08T08:41:15;16.80;99.90
18339;DHT22;9295;44.484;11.240;2023-04-08T08:43:43;17.30;99.90
18339;DHT22;9295;44.484;11.240;2023-04-08T08:46:15;17.60;99.90
18339;DHT22;9295;44.484;11.240;2023-04-08T08:48:44;17.90;99.90
18339;DHT22;9295;44.484;11.240;2023-04-08T08:51:14;17.50;99.90
18339;DHT22;9295;44.484;11.240;2023-04-08T08:53:42;17.00;99.90
18339;DHT22;9295;44.484;11.240;2023-04-08T08:56:11;16.50;99.90
18339;DHT22;9295;44.484;11.240;2023-04-08T08:58:44;16.30;99.90
18339;DHT22;9295;44.484;11.240;2023-04-08T09:01:31;15.90;99.90
18339;DHT22;9295;44.484;11.240;2023-04-08T09:04:10;16.30;99.90
18339;DHT22;9295;44.484;11.240;2023-04-08T09:06:40;16.90;99.90
18339;DHT22;9295;44.484;11.240;2023-04-08T09:09:09;17.00;99.90
18339;DHT22;9295;44.484;11.240;2023-04-08T09:11:38;16.80;99.90
18339;DHT22;9295;44.484;11.240;2023-04-08T09:14:18;16.50;99.90
18339;DHT22;9295;44.484;11.240;2023-04-08T09:16:46;16.70;99.90
18339;DHT22;9295;44.484;11.240;2023-04-08T09:19:15;16.80;99.90
18339;DHT22;9295;44.484;11.240;2023-04-08T09:21:45;17.00;99.90
18339;DHT22;9295;44.484;11.240;2023-04-08T09:24:27;17.20;99.90
18339;DHT22;9295;44.484;11.240;2023-04-08T09:26:55;17.50;99.90
18339;DHT22;9295;44.484;11.240;2023-04-08T09:29:24;17.50;99.90
18339;DHT22;9295;44.484;11.240;2023-04-08T09:31:58;17.00;99.90
18339;DHT22;9295;44.484;11.240;2023-04-08T09:34:28;17.00;99.90
18339;DHT22;9295;44.484;11.240;2023-04-08T09:36:59;17.00;99.90
18339;DHT22;9295;44.484;11.240;2023-04-08T09:39:28;16.80;99.90
18339;DHT22;9295;44.484;11.240;2023-04-08T09:41:57;16.80;99.90
18339;DHT22;9295;44.484;11.240;2023-04-08T09:44:28;17.00;99.90
18339;DHT22;9295;44.484;11.240;2023-04-08T09:47:05;17.30;99.90
18339;DHT22;9295;44.484;11.240;2023-04-08T09:49:38;17.40;99.90
18339;DHT22;9295;44.484;11.240;2023-04-08T09:52:14;17.60;99.90
18339;DHT22;9295;44.484;11.240;2023-04-08T09:54:51;17.60;99.90
18339;DHT22;9295;44.484;11.240;2023-04-08T09:57:24;17.60;99.90
18339;DHT22;9295;44.484;11.240;2023-04-08T09:59:59;17.80;99.90
18339;DHT22;9295;44.484;11.240;2023-04-08T10:02:44;17.90;99.90
18339;DHT22;9295;44.484;11.240;2023-04-08T10:05:16;18.00;99.90
18339;DHT22;9295;44.484;11.240;2023-04-08T10:07:47;17.90;99.90
18339;DHT22;9295;44.484;11.240;2023-04-08T10:10:17;18.10;99.90
18339;DHT22;9295;44.484;11.240;2023-04-08T10:12:46;17.80;99.90
18339;DHT22;9295;44.484;11.240;2023-04-08T10:15:25;17.50;99.90
18339;DHT22;9295;44.484;11.240;2023-04-08T10:17:55;17.40;99.90
18339;DHT22;9295;44.484;11.240;2023-04-08T10:20:48;17.30;99.90
18339;DHT22;9295;44.484;11.240;2023-04-08T10:23:18;17.40;99.90
18339;DHT22;9295;44.484;11.240;2023-04-08T10:25:48;17.50;99.90
18339;DHT22;9295;44.484;11.240;2023-04-08T10:28:23;17.40;99.90
18339;DHT22;9295;44.484;11.240;2023-04-08T10:30:53;17.00;99.90
18339;DHT22;9295;44.484;11.240;2023-04-08T10:33:23;16.80;99.90
18339;DHT22;9295;44.484;11.240;2023-04-08T10:35:53;16.40;99.90
18339;DHT22;9295;44.484;11.240;2023-04-08T10:38:24;16.50;99.90
18339;DHT22;9295;44.484;11.240;2023-04-08T10:40:53;16.70;99.90
18339;DHT22;9295;44.484;11.240;2023-04-08T10:43:22;16.60;99.90
18339;DHT22;9295;44.484;11.240;2023-04-08T10:45:52;16.60;99.90
18339;DHT22;9295;44.484;11.240;2023-04-08T10:48:22;16.50;99.90
18339;DHT22;9295;44.484;11.240;2023-04-08T10:50:52;16.10;99.90
18339;DHT22;9295;44.484;11.240;2023-04-08T10:53:31;15.90;99.90
18339;DHT22;9295;44.484;11.240;2023-04-08T10:56:03;16.10;99.90
18339;DHT22;9295;44.484;11.240;2023-04-08T10:58:33;15.80;99.90
18339;DHT22;9295;44.484;11.240;2023-04-08T11:01:03;15.90;99.90
18339;DHT22;9295;44.484;11.240;2023-04-08T11:03:33;16.10;99.90
18339;DHT22;9295;44.484;11.240;2023-04-08T11:06:02;16.00;99.90
18339;DHT22;9295;44.484;11.240;2023-04-08T11:08:33;15.80;99.90
18339;DHT22;9295;44.484;11.240;2023-04-08T11:11:03;15.60;99.90
18339;DHT22;9295;44.484;11.240;2023-04-08T11:13:36;15.80;99.90
18339;DHT22;9295;44.484;11.240;2023-04-08T11:16:06;16.00;99.90
18339;DHT22;9295;44.484;11.240;2023-04-08T11:18:45;16.20;99.90
18339;DHT22;9295;44.484;11.240;2023-04-08T11:21:14;16.30;99.90
18339;DHT22;9295;44.484;11.240;2023-04-08T11:23:48;16.50;99.90
18339;DHT22;9295;44.484;11.240;2023-04-08T11:26:17;16.70;99.90
18339;DHT22;9295;44.484;11.240;2023-04-08T11:28:47;16.90;99.90
18339;DHT22;9295;44.484;11.240;2023-04-08T11:31:19;16.90;99.90
18339;DHT22;9295;44.484;11.240;2023-04-08T11:33:53;16.90;99.90
18339;DHT22;9295;44.484;11.240;2023-04-08T11:36:22;16.80;99.90
18339;DHT22;9295;44.484;11.240;2023-04-08T11:38:54;16.60;99.90
18339;DHT22;9295;44.484;11.240;2023-04-08T11:41:22;16.60;99.90
18339;DHT22;9295;44.484;11.240;2023-04-08T11:43:52;16.90;99.90
18339;DHT22;9295;44.484;11.240;2023-04-08T11:46:21;16.90;99.90
18339;DHT22;9295;44.484;11.240;2023-04-08T11:49:13;17.00;99.90
18339;DHT22;9295;44.484;11.240;2023-04-08T11:51:54;16.80;99.90
18339;DHT22;9295;44.484;11.240;2023-04-08T11:54:28;16.60;99.90
18339;DHT22;9295;44.484;11.240;2023-04-08T11:56:57;16.40;99.90
18339;DHT22;9295;44.484;11.240;2023-04-08T11:59:25;16.30;99.90
18339;DHT22;9295;44.484;11.240;2023-04-08T12:01:55;16.20;99.90
18339;DHT22;9295;44.484;11.240;2023-04-08T12:04:25;16.30;99.90
18339;DHT22;9295;44.484;11.240;2023-04-08T12:06:53;16.30;99.90
18339;DHT22;9295;44.484;11.240;2023-04-08T12:09:24;16.50;99.90
18339;DHT22;9295;44.484;11.240;2023-04-08T12:11:54;16.80;99.90
18339;DHT22;9295;44.484;11.240;2023-04-08T12:14:23;17.10;99.90
18339;DHT22;9295;44.484;11.240;2023-04-08T12:16:54;17.50;99.90
18339;DHT22;9295;44.484;11.240;2023-04-08T12:19:22;17.60;99.90
18339;DHT22;9295;44.484;11.240;2023-04-08T12:21:51;17.40;99.90
18339;DHT22;9295;44.484;11.240;2023-04-08T12:24:19;17.60;99.90
18339;DHT22;9295;44.484;11.240;2023-04-08T12:26:48;17.70;99.90
18339;DHT22;9295;44.484;11.240;2023-04-08T12:29:17;18.00;99.90
18339;DHT22;9295;44.484;11.240;2023-04-08T12:31:46;18.10;99.90
18339;DHT22;9295;44.484;11.240;2023-04-08T12:34:14;18.10;99.90
18339;DHT22;9295;44.484;11.240;2023-04-08T12:36:43;18.20;99.90
18339;DHT22;9295;44.484;11.240;2023-04-08T12:39:12;18.40;99.90
18339;DHT22;9295;44.484;11.240;2023-04-08T12:41:40;18.40;99.60
18339;DHT22;9295;44.484;11.240;2023-04-08T12:44:09;18.30;99.10
18339;DHT22;9295;44.484;11.240;2023-04-08T12:46:38;18.10;98.20
18339;DHT22;9295;44.484;11.240;2023-04-08T12:49:07;18.00;99.00
18339;DHT22;9295;44.484;11.240;2023-04-08T12:51:35;17.90;98.70
18339;DHT22;9295;44.484;11.240;2023-04-08T12:54:04;17.90;98.30
18339;DHT22;9295;44.484;11.240;2023-04-08T12:56:32;17.60;98.80
18339;DHT22;9295;44.484;11.240;2023-04-08T12:59:01;16.40;99.90
18339;DHT22;9295;44.484;11.240;2023-04-08T13:01:29;15.70;99.90
18339;DHT22;9295;44.484;11.240;2023-04-08T13:04:00;15.10;99.90
18339;DHT22;9295;44.484;11.240;2023-04-08T13:06:28;14.40;99.90
18339;DHT22;9295;44.484;11.240;2023-04-08T13:08:57;13.80;99.90
18339;DHT22;9295;44.484;11.240;2023-04-08T13:11:26;13.60;99.90
18339;DHT22;9295;44.484;11.240;2023-04-08T13:13:55;13.40;99.90
18339;DHT22;9295;44.484;11.240;2023-04-08T13:16:23;13.20;99.90
18339;DHT22;9295;44.484;11.240;2023-04-08T13:18:51;13.10;99.90
18339;DHT22;9295;44.484;11.240;2023-04-08T13:21:21;13.10;99.90
18339;DHT22;9295;44.484;11.240;2023-04-08T13:23:49;13.10;99.90
18339;DHT22;9295;44.484;11.240;2023-04-08T13:26:18;13.00;99.90
18339;DHT22;9295;44.484;11.240;2023-04-08T13:28:46;12.90;99.90
18339;DHT22;9295;44.484;11.240;2023-04-08T13:31:24;12.80;99.90
18339;DHT22;9295;44.484;11.240;2023-04-08T13:33:52;12.90;99.90
18339;DHT22;9295;44.484;11.240;2023-04-08T13:36:25;12.70;99.90
18339;DHT22;9295;44.484;11.240;2023-04-08T13:38:55;12.70;99.90
18339;DHT22;9295;44.484;11.240;2023-04-08T13:41:23;12.70;99.90
18339;DHT22;9295;44.484;11.240;2023-04-08T13:43:54;12.80;99.90
18339;DHT22;9295;44.484;11.240;2023-04-08T13:46:22;12.90;99.90
18339;DHT22;9295;44.484;11.240;2023-04-08T13:48:51;13.10;99.90
18339;DHT22;9295;44.484;11.240;2023-04-08T13:51:19;13.10;99.90
18339;DHT22;9295;44.484;11.240;2023-04-08T13:53:49;13.20;99.90
18339;DHT22;9295;44.484;11.240;2023-04-08T13:56:18;13.50;99.90
18339;DHT22;9295;44.484;11.240;2023-04-08T13:58:47;13.70;99.90
18339;DHT22;9295;44.484;11.240;2023-04-08T14:01:23;13.90;99.90
18339;DHT22;9295;44.484;11.240;2023-04-08T14:03:51;14.10;99.90
18339;DHT22;9295;44.484;11.240;2023-04-08T14:06:20;13.90;99.90
18339;DHT22;9295;44.484;11.240;2023-04-08T14:08:50;13.60;99.90
18339;DHT22;9295;44.484;11.240;2023-04-08T14:11:18;13.80;99.90
18339;DHT22;9295;44.484;11.240;2023-04-08T14:13:47;14.20;99.90
18339;DHT22;9295;44.484;11.240;2023-04-08T14:16:15;14.50;99.90
18339;DHT22;9295;44.484;11.240;2023-04-08T14:18:44;14.70;99.90
18339;DHT22;9295;44.484;11.240;2023-04-08T14:21:12;14.90;99.90
18339;DHT22;9295;44.484;11.240;2023-04-08T14:23:41;15.10;99.90
18339;DHT22;9295;44.484;11.240;2023-04-08T14:26:11;15.10;99.90
18339;DHT22;9295;44.484;11.240;2023-04-08T14:28:39;15.10;99.90
18339;DHT22;9295;44.484;11.240;2023-04-08T14:31:08;14.90;99.90
18339;DHT22;9295;44.484;11.240;2023-04-08T14:33:36;14.80;99.90
18339;DHT22;9295;44.484;11.240;2023-04-08T14:36:05;14.80;99.90
18339;DHT22;9295;44.484;11.240;2023-04-08T14:38:34;14.70;99.90
18339;DHT22;9295;44.484;11.240;2023-04-08T14:41:02;14.80;99.90
18339;DHT22;9295;44.484;11.240;2023-04-08T14:43:32;14.70;99.90
18339;DHT22;9295;44.484;11.240;2023-04-08T14:46:00;14.70;99.90
18339;DHT22;9295;44.484;11.240;2023-04-08T14:48:29;14.70;99.90
18339;DHT22;9295;44.484;11.240;2023-04-08T14:50:57;14.70;99.90
18339;DHT22;9295;44.484;11.240;2023-04-08T14:53:26;14.60;99.90
18339;DHT22;9295;44.484;11.240;2023-04-08T14:55:54;14.50;99.90
18339;DHT22;9295;44.484;11.240;2023-04-08T14:58:22;14.50;99.90
18339;DHT22;9295;44.484;11.240;2023-04-08T15:00:52;14.50;99.90
18339;DHT22;9295;44.484;11.240;2023-04-08T15:03:21;14.60;99.90
18339;DHT22;9295;44.484;11.240;2023-04-08T15:05:56;14.80;99.90
18339;DHT22;9295;44.484;11.240;2023-04-08T15:08:25;14.90;99.90
18339;DHT22;9295;44.484;11.240;2023-04-08T15:10:54;15.10;99.90
18339;DHT22;9295;44.484;11.240;2023-04-08T15:13:23;15.20;99.90
18339;DHT22;9295;44.484;11.240;2023-04-08T15:15:52;15.20;99.90
18339;DHT22;9295;44.484;11.240;2023-04-08T15:18:21;15.20;99.90
18339;DHT22;9295;44.484;11.240;2023-04-08T15:20:49;15.20;99.90
18339;DHT22;9295;44.484;11.240;2023-04-08T15:23:17;15.20;99.90
18339;DHT22;9295;44.484;11.240;2023-04-08T15:25:46;15.20;99.90
18339;DHT22;9295;44.484;11.240;2023-04-08T15:28:14;15.20;99.90
18339;DHT22;9295;44.484;11.240;2023-04-08T15:30:42;15.20;99.90
18339;DHT22;9295;44.484;11.240;2023-04-08T15:33:12;15.30;99.90
18339;DHT22;9295;44.484;11.240;2023-04-08T15:35:44;15.30;99.90
18339;DHT22;9295;44.484;11.240;2023-04-08T15:38:12;15.30;99.90
18339;DHT22;9295;44.484;11.240;2023-04-08T15:40:41;15.20;99.90
18339;DHT22;9295;44.484;11.240;2023-04-08T15:43:11;15.10;99.90
18339;DHT22;9295;44.484;11.240;2023-04-08T15:45:41;15.00;99.90
18339;DHT22;9295;44.484;11.240;2023-04-08T15:48:11;14.80;99.90
18339;DHT22;9295;44.484;11.240;2023-04-08T15:50:40;14.90;99.90
18339;DHT22;9295;44.484;11.240;2023-04-08T15:53:08;14.90;99.90